Time;durP1;ratioP1;P1;durP2;ratioP2;P2;SDS_P1;SDS_P2;PMS_P1;PMS_P2;Temp;Humidity;BMP_temperature;BMP_pressure;BME280_temperature;BME280_humidity;BME280_pressure;Samples;Min_cycle;Max_cycle;Signal;HPM_P1;HPM_P2
2022/04/25 00:01:04;;;;;;;0.50;0.50;;;;;;;11.82;100.00;94116.16;5093013;28;20241;-51
2022/04/25 00:03:30;;;;;;;0.60;0.60;;;;;;;11.83;100.00;94119.63;5093117;28;20218;-49
2022/04/25 00:05:56;;;;;;;1.10;0.60;;;;;;;11.74;100.00;94119.56;5093130;28;20221;-50
2022/04/25 00:08:21;;;;;;;0.50;0.50;;;;;;;11.86;100.00;94121.50;5093574;28;20191;-49
2022/04/25 00:10:47;;;;;;;1.63;0.60;;;;;;;11.85;100.00;94119.97;5092834;28;20195;-50
2022/04/25 00:13:14;;;;;;;0.80;0.80;;;;;;;11.85;100.00;94114.50;5092756;28;20196;-51
2022/04/25 00:15:40;;;;;;;1.07;0.80;;;;;;;11.92;100.00;94119.72;5094338;28;20273;-68
2022/04/25 00:18:06;;;;;;;0.60;0.60;;;;;;;11.92;100.00;94111.53;5092796;28;20188;-68
2022/04/25 00:20:31;;;;;;;0.50;0.50;;;;;;;11.91;100.00;94115.47;5093249;28;20199;-67
2022/04/25 00:23:00;;;;;;;0.57;0.57;;;;;;;11.98;100.00;94126.19;5092788;28;20209;-69
2022/04/25 00:25:26;;;;;;;0.43;0.43;;;;;;;11.84;100.00;94118.44;5092749;28;20212;-67
2022/04/25 00:27:51;;;;;;;0.50;0.50;;;;;;;11.91;100.00;94118.22;5092827;28;20191;-67
2022/04/25 00:30:17;;;;;;;0.50;0.50;;;;;;;11.80;100.00;94124.03;5092708;28;20198;-68
2022/04/25 00:32:42;;;;;;;0.57;0.57;;;;;;;11.92;100.00;94125.97;5092330;28;20211;-60
2022/04/25 00:35:08;;;;;;;0.60;0.60;;;;;;;11.96;100.00;94115.69;5092842;28;20187;-67
2022/04/25 00:37:33;;;;;;;0.60;0.47;;;;;;;11.94;100.00;94117.31;5093228;28;20227;-67
2022/04/25 00:39:58;;;;;;;0.60;0.60;;;;;;;11.82;100.00;94110.69;5092345;28;20196;-67
2022/04/25 00:42:25;;;;;;;0.90;0.70;;;;;;;11.78;100.00;94120.22;5092822;28;20204;-67
2022/04/25 00:44:50;;;;;;;0.80;0.70;;;;;;;11.84;100.00;94118.44;5092691;28;20204;-67
2022/04/25 00:47:16;;;;;;;0.73;0.73;;;;;;;11.86;100.00;94113.28;5092387;28;20597;-67
2022/04/25 00:49:42;;;;;;;1.53;0.87;;;;;;;11.76;100.00;94117.16;5092461;28;20184;-46
2022/04/25 00:52:07;;;;;;;1.20;0.70;;;;;;;11.85;100.00;94125.44;5093013;28;20202;-47
2022/04/25 00:54:33;;;;;;;0.83;0.70;;;;;;;11.75;100.00;94115.63;5092197;28;20182;-67
2022/04/25 00:57:00;;;;;;;0.80;0.80;;;;;;;11.85;100.00;94117.22;5092229;28;20180;-67
2022/04/25 00:59:25;;;;;;;1.20;1.03;;;;;;;11.85;100.00;94119.97;5092655;28;20198;-67
2022/04/25 01:01:53;;;;;;;1.50;0.80;;;;;;;11.91;100.00;94118.22;5092365;28;20199;-67
2022/04/25 01:04:20;;;;;;;1.40;0.90;;;;;;;11.74;100.00;94120.34;5092032;28;20184;-68
2022/04/25 01:06:45;;;;;;;1.77;1.00;;;;;;;11.80;100.00;94124.03;5092069;28;20193;-67
2022/04/25 01:09:11;;;;;;;0.70;0.70;;;;;;;11.62;100.00;94112.91;5092569;28;20241;-59
2022/04/25 01:11:36;;;;;;;1.30;0.80;;;;;;;11.91;100.00;94118.22;5095837;28;20240;-50
2022/04/25 01:14:12;;;;;;;0.90;0.90;;;;;;;11.76;100.00;94122.63;5095492;28;20192;-47
2022/04/25 01:16:38;;;;;;;0.60;0.60;;;;;;;11.88;100.00;94119.84;5095807;28;20186;-50
2022/04/25 01:19:03;;;;;;;0.40;0.40;;;;;;;11.81;100.00;94122.84;5095483;28;20191;-46
2022/04/25 01:21:31;;;;;;;0.70;0.70;;;;;;;11.91;100.00;94124.44;5096054;28;20211;-50
2022/04/25 01:29:27;;;;;;;0.50;0.50;;;;;;;11.94;100.00;94128.25;5096992;28;20219;-51
2022/04/25 01:31:52;;;;;;;0.70;0.40;;;;;;;11.91;100.00;94129.91;5095466;28;20198;-53
2022/04/25 01:34:17;;;;;;;0.53;0.53;;;;;;;11.73;100.00;94128.97;5095279;28;20279;-52
2022/04/25 01:36:43;;;;;;;0.60;0.60;;;;;;;11.67;100.00;94131.50;5095378;28;20227;-53
2022/04/25 01:39:08;;;;;;;0.60;0.60;;;;;;;11.68;100.00;94121.31;5095226;28;20187;-49
2022/04/25 01:41:33;;;;;;;0.50;0.50;;;;;;;11.63;100.00;94135.56;5095982;28;20190;-51
2022/04/25 01:43:58;;;;;;;0.47;0.47;;;;;;;11.74;100.00;94130.50;5095169;28;20249;-48
2022/04/25 01:46:24;;;;;;;2.23;1.87;;;;;;;11.73;100.00;94129.72;5095197;28;20222;-55
2022/04/25 01:48:49;;;;;;;0.70;0.70;;;;;;;11.68;100.00;94132.25;5095104;28;20181;-59
2022/04/25 01:51:15;;;;;;;1.00;0.90;;;;;;;11.61;100.00;94133.25;5095315;28;20192;-59
2022/04/25 01:53:40;;;;;;;2.37;1.20;;;;;;;11.87;100.00;94136.72;5095232;28;20192;-60
2022/04/25 01:56:06;;;;;;;1.13;1.03;;;;;;;11.80;100.00;94128.75;5095517;28;20179;-59
2022/04/25 01:58:31;;;;;;;1.20;1.10;;;;;;;11.71;100.00;94123.16;5094960;28;20191;-59
2022/04/25 02:00:56;;;;;;;1.10;0.90;;;;;;;11.79;100.00;94130.72;5095802;28;20227;-60
2022/04/25 02:03:21;;;;;;;0.40;0.40;;;;;;;11.81;100.00;94133.00;5095244;28;20212;-48
2022/04/25 02:05:47;;;;;;;0.53;0.50;;;;;;;11.72;100.00;94132.91;5094793;28;20203;-48
2022/04/25 02:08:12;;;;;;;0.40;0.40;;;;;;;11.76;100.00;94128.84;5094831;28;20189;-49
2022/04/25 02:10:37;;;;;;;0.40;0.40;;;;;;;11.85;100.00;94142.63;5094900;28;20210;-47
2022/04/25 02:13:03;;;;;;;1.83;1.10;;;;;;;11.77;100.00;94141.31;5094754;28;20194;-47
2022/04/25 02:15:28;;;;;;;0.93;0.80;;;;;;;11.85;100.00;94139.13;5094751;28;20187;-47
2022/04/25 02:17:54;;;;;;;0.73;0.70;;;;;;;11.75;100.00;94148.44;5094688;28;20189;-46
2022/04/25 02:20:19;;;;;;;0.60;0.60;;;;;;;11.63;100.00;94141.81;5094363;28;20195;-49
2022/04/25 02:22:45;;;;;;;0.87;0.53;;;;;;;11.77;100.00;94135.09;5093743;28;20227;-50
2022/04/25 02:25:10;;;;;;;1.07;0.40;;;;;;;11.86;100.00;94146.88;5094196;28;20226;-47
2022/04/25 02:27:36;;;;;;;0.40;0.40;;;;;;;11.81;100.00;94141.22;5094565;28;20186;-52
2022/04/25 02:30:03;;;;;;;0.50;0.50;;;;;;;11.90;100.00;94152.22;5094494;28;20196;-47
2022/04/25 02:32:28;;;;;;;0.60;0.60;;;;;;;11.78;100.00;94150.28;5094758;28;20210;-46
2022/04/25 02:34:54;;;;;;;1.03;0.70;;;;;;;11.95;100.00;94151.69;5094466;28;20192;-51
2022/04/25 02:37:20;;;;;;;0.57;0.57;;;;;;;11.91;100.00;94151.03;5094311;28;20188;-51
2022/04/25 02:39:46;;;;;;;0.60;0.60;;;;;;;11.95;100.00;94159.88;5094291;28;20274;-58
2022/04/25 02:42:12;;;;;;;0.60;0.60;;;;;;;11.91;100.00;94159.25;5094536;28;20302;-49
2022/04/25 02:44:37;;;;;;;0.70;0.70;;;;;;;11.97;100.00;94154.72;5094324;28;20185;-51
2022/04/25 02:47:02;;;;;;;0.50;0.50;;;;;;;11.94;100.00;94158.34;5094016;28;20218;-52
2022/04/25 02:49:28;;;;;;;0.50;0.50;;;;;;;11.89;100.00;94156.94;5094203;28;20199;-49
2022/04/25 02:51:53;;;;;;;0.50;0.50;;;;;;;11.85;100.00;94158.25;5094189;28;20191;-49
2022/04/25 02:54:18;;;;;;;2.50;2.30;;;;;;;12.03;100.00;94155.69;5094307;28;20188;-50
2022/04/25 02:56:44;;;;;;;0.60;0.60;;;;;;;11.98;100.00;94156.28;5093789;28;20192;-47
2022/04/25 02:59:09;;;;;;;0.60;0.60;;;;;;;11.98;100.00;94159.00;5094093;28;20172;-64
2022/04/25 03:01:34;;;;;;;0.67;0.67;;;;;;;12.02;100.00;94162.38;5094749;28;20195;-44
2022/04/25 03:04:00;;;;;;;1.33;0.60;;;;;;;12.11;100.00;94162.47;5093718;28;20204;-46
2022/04/25 03:06:25;;;;;;;1.03;0.93;;;;;;;11.99;100.00;94157.78;5094326;28;20188;-44
2022/04/25 03:08:51;;;;;;;0.70;0.70;;;;;;;12.05;100.00;94161.47;5093925;28;20203;-43
2022/04/25 03:11:16;;;;;;;0.70;0.70;;;;;;;12.15;100.00;94166.63;5093818;28;20187;-45
2022/04/25 03:13:42;;;;;;;0.73;0.70;;;;;;;12.04;100.00;94165.44;5093800;28;20287;-45
2022/04/25 03:16:08;;;;;;;0.60;0.60;;;;;;;11.97;100.00;94171.13;5093750;28;20184;-54
2022/04/25 03:18:34;;;;;;;0.83;0.83;;;;;;;12.05;100.00;94172.44;5095084;28;20191;-55
2022/04/25 03:21:00;;;;;;;0.70;0.70;;;;;;;11.93;100.00;94175.97;5093583;28;20191;-48
2022/04/25 03:23:26;;;;;;;0.70;0.70;;;;;;;12.09;100.00;94171.09;5093610;28;20220;-49
2022/04/25 03:25:52;;;;;;;0.50;0.50;;;;;;;12.20;100.00;94176.25;5093649;28;20270;-46
2022/04/25 03:28:18;;;;;;;1.30;1.20;;;;;;;12.08;100.00;94174.28;5093254;28;20184;-49
2022/04/25 03:30:43;;;;;;;0.77;0.77;;;;;;;12.13;100.00;94179.22;5093988;28;20270;-51
2022/04/25 03:33:13;;;;;;;0.50;0.50;;;;;;;12.13;100.00;94179.22;5093428;28;20223;-51
2022/04/25 03:35:45;;;;;;;0.80;0.80;;;;;;;12.14;100.00;94180.75;5093968;28;20187;-65
2022/04/25 03:38:12;;;;;;;0.67;0.67;;;;;;;12.24;100.00;94185.84;5094644;28;20190;-55
2022/04/25 03:40:37;;;;;;;0.60;0.60;;;;;;;12.16;100.00;94181.81;5094013;28;20191;-53
2022/04/25 03:43:06;;;;;;;0.60;0.60;;;;;;;12.09;100.00;94189.53;5093173;28;20204;-54
2022/04/25 03:45:32;;;;;;;0.73;0.73;;;;;;;12.21;100.00;94191.44;5093299;28;20192;-53
2022/04/25 03:47:58;;;;;;;0.70;0.70;;;;;;;12.22;100.00;94188.28;5093789;28;20211;-52
2022/04/25 03:50:23;;;;;;;0.90;0.80;;;;;;;12.15;100.00;94190.47;5093192;28;20250;-54
2022/04/25 03:52:49;;;;;;;0.50;0.50;;;;;;;11.94;100.00;94191.16;5093186;28;20197;-59
2022/04/25 03:58:01;;;;;;;0.83;0.77;;;;;;;11.81;100.00;94201.38;5094605;28;20190;-59
2022/04/25 04:00:27;;;;;;;0.63;0.63;;;;;;;11.90;100.00;94206.94;5092996;28;20180;-59
2022/04/25 04:02:53;;;;;;;0.60;0.60;;;;;;;11.99;100.00;94198.84;5092796;28;20207;-59
2022/04/25 04:05:18;;;;;;;1.00;0.73;;;;;;;11.91;100.00;94208.50;5093373;28;20244;-59
2022/04/25 04:07:44;;;;;;;1.80;1.70;;;;;;;12.01;100.00;94210.09;5092960;28;20332;-59
2022/04/25 04:10:10;;;;;;;4.50;3.50;;;;;;;12.12;100.00;94207.75;5093033;28;20187;-58
2022/04/25 04:12:36;;;;;;;2.13;1.57;;;;;;;12.03;100.00;94218.63;5093339;28;20306;-54
2022/04/25 04:15:05;;;;;;;1.07;0.97;;;;;;;12.13;100.00;94223.00;5092802;28;20191;-64
2022/04/25 04:17:30;;;;;;;0.80;0.80;;;;;;;12.03;100.00;94221.38;5093116;28;20195;-63
2022/04/25 04:19:56;;;;;;;0.90;0.90;;;;;;;12.25;100.00;94235.88;5092863;28;20202;-63
2022/04/25 04:22:22;;;;;;;0.70;0.70;;;;;;;12.29;100.00;94231.06;5092864;28;20212;-63
2022/04/25 04:24:49;;;;;;;0.70;0.70;;;;;;;12.16;100.00;94233.03;5093150;28;20234;-63
2022/04/25 04:27:14;;;;;;;1.53;0.80;;;;;;;12.14;100.00;94238.22;5092683;28;20188;-62
2022/04/25 04:29:41;;;;;;;1.10;1.00;;;;;;;12.05;100.00;94243.56;5092789;28;20198;-56
2022/04/25 04:32:07;;;;;;;1.03;0.90;;;;;;;12.24;100.00;94243.31;5092487;28;20297;-59
2022/04/25 04:34:36;;;;;;;1.40;1.17;;;;;;;12.29;100.00;94251.00;5092416;28;20194;-54
2022/04/25 04:37:03;;;;;;;0.83;0.83;;;;;;;12.26;100.00;94248.34;5093152;28;20192;-52
2022/04/25 04:39:31;;;;;;;1.47;1.00;;;;;;;12.32;100.00;94257.56;5092287;28;20237;-55
2022/04/25 04:41:56;;;;;;;3.70;1.93;;;;;;;12.33;100.00;94264.53;5092779;28;20227;-55
2022/04/25 04:44:21;;;;;;;1.10;1.00;;;;;;;12.20;100.00;94266.56;5093087;28;20242;-54
2022/04/25 04:46:47;;;;;;;2.10;1.53;;;;;;;12.17;100.00;94259.22;5096458;28;20247;-55
2022/04/25 04:49:12;;;;;;;1.20;1.10;;;;;;;12.22;100.00;94270.38;5095823;28;20188;-59
2022/04/25 04:51:38;;;;;;;2.37;2.10;;;;;;;12.27;100.00;94271.78;5095891;28;20206;-47
2022/04/25 04:54:03;;;;;;;2.00;1.40;;;;;;;12.34;100.00;94283.28;5096231;28;20176;-47
2022/04/25 04:56:29;;;;;;;1.47;1.37;;;;;;;12.24;100.00;94278.16;5096100;28;20191;-46
2022/04/25 04:58:55;;;;;;;1.90;1.77;;;;;;;12.35;100.00;94278.56;5095978;28;20195;-46
2022/04/25 05:01:20;;;;;;;1.70;1.53;;;;;;;12.44;100.00;94281.38;5095619;28;20192;-47
2022/04/25 05:03:46;;;;;;;1.70;1.60;;;;;;;12.30;100.00;94282.63;5095764;28;20214;-50
2022/04/25 05:06:12;;;;;;;1.77;1.33;;;;;;;12.28;100.00;94287.00;5095613;28;20254;-52
2022/04/25 05:08:38;;;;;;;2.27;1.80;;;;;;;12.30;100.00;94292.81;5095755;28;20195;-61
2022/04/25 05:11:05;;;;;;;1.70;1.60;;;;;;;12.29;100.00;94291.28;5095875;28;20184;-62
2022/04/25 05:13:31;;;;;;;2.57;2.27;;;;;;;12.24;100.00;94306.28;5095578;28;20271;-61
2022/04/25 05:15:57;;;;;;;3.17;2.20;;;;;;;12.28;100.00;94304.19;5095897;28;20177;-61
2022/04/25 05:18:22;;;;;;;2.40;1.97;;;;;;;12.29;100.00;94302.22;5095667;28;20184;-61
2022/04/25 05:20:48;;;;;;;2.63;2.10;;;;;;;12.40;100.00;94306.16;5095122;28;20192;-61
2022/04/25 05:23:13;;;;;;;2.40;1.80;;;;;;;12.58;100.00;94308.31;5095188;28;20295;-61
2022/04/25 05:25:39;;;;;;;2.37;1.90;;;;;;;12.59;100.00;94318.03;5095531;28;20216;-52
2022/04/25 05:28:06;;;;;;;4.87;2.43;;;;;;;12.49;100.00;94319.16;5095466;28;20188;-52
2022/04/25 05:30:32;;;;;;;2.40;2.20;;;;;;;12.58;100.00;94335.69;5095793;28;20209;-52
2022/04/25 05:33:02;;;;;;;2.47;2.17;;;;;;;12.71;100.00;94323.50;5095236;28;20188;-53
2022/04/25 05:35:29;;;;;;;3.47;2.57;;;;;;;12.59;100.00;94326.25;5095220;28;20188;-54
2022/04/25 05:37:56;;;;;;;4.03;2.37;;;;;;;12.77;100.00;94331.91;5095397;28;20184;-54
2022/04/25 05:40:22;;;;;;;3.00;2.70;;;;;;;12.80;100.00;94331.81;5096113;28;20435;-55
2022/04/25 05:42:49;;;;;;;3.27;2.93;;;;;;;12.84;100.00;94337.16;5095525;28;20212;-58
2022/04/25 05:45:16;;;;;;;4.43;2.83;;;;;;;13.06;100.00;94343.47;5095577;28;20196;-56
2022/04/25 05:47:45;;;;;;;3.30;3.00;;;;;;;12.88;100.00;94343.28;5094941;28;20214;-55
2022/04/25 05:52:56;;;;;;;3.33;2.97;;;;;;;13.20;100.00;94342.97;5096210;28;20202;-55
2022/04/25 05:55:22;;;;;;;4.57;2.90;;;;;;;13.37;100.00;94346.28;5094673;28;20200;-56
2022/04/25 05:57:47;;;;;;;4.97;3.33;;;;;;;13.46;100.00;94343.59;5095428;28;20182;-56
2022/04/25 06:00:14;;;;;;;4.83;3.03;;;;;;;13.68;100.00;94350.63;5094740;28;20196;-57
2022/04/25 06:02:41;;;;;;;5.10;3.60;;;;;;;13.74;100.00;94351.59;5094858;28;20208;-56
2022/04/25 06:05:07;;;;;;;3.97;3.50;;;;;;;13.64;100.00;94360.19;5094443;28;20181;-59
2022/04/25 06:07:33;;;;;;;4.77;3.77;;;;;;;13.61;100.00;94361.84;5095274;28;20180;-58
2022/04/25 06:10:00;;;;;;;4.47;3.60;;;;;;;13.70;100.00;94369.38;5095756;28;20239;-58
2022/04/25 06:12:29;;;;;;;5.17;3.50;;;;;;;13.77;100.00;94364.38;5095020;28;20253;-58
2022/04/25 06:15:00;;;;;;;5.13;4.03;;;;;;;13.73;100.00;94374.72;5095506;28;20219;-58
2022/04/25 06:17:26;;;;;;;5.90;4.20;;;;;;;13.49;100.00;94376.41;5094644;28;20659;-58
2022/04/25 06:19:51;;;;;;;4.27;3.87;;;;;;;13.58;100.00;94378.44;5094546;28;20189;-57
2022/04/25 06:22:20;;;;;;;5.50;4.40;;;;;;;13.63;100.00;94380.59;5094461;28;20185;-50
2022/04/25 06:24:46;;;;;;;5.10;4.60;;;;;;;13.67;100.00;94384.00;5094667;28;20204;-58
2022/04/25 06:27:13;;;;;;;6.27;5.00;;;;;;;13.79;100.00;94378.44;5094279;28;20235;-58
2022/04/25 06:29:42;;;;;;;7.80;4.70;;;;;;;14.34;100.00;94380.28;5094557;28;20186;-58
2022/04/25 06:32:07;;;;;;;6.60;5.17;;;;;;;14.57;100.00;94387.97;5094264;28;20187;-59
2022/04/25 06:34:32;;;;;;;6.90;5.70;;;;;;;14.60;100.00;94392.56;5094432;28;20214;-58
2022/04/25 06:36:58;;;;;;;7.53;6.33;;;;;;;14.64;100.00;94393.19;5094664;28;20191;-58
2022/04/25 06:39:23;;;;;;;6.67;5.53;;;;;;;14.87;100.00;94389.91;5094357;28;20184;-58
2022/04/25 06:41:49;;;;;;;8.30;6.23;;;;;;;14.64;100.00;94398.69;5094741;28;20198;-58
2022/04/25 06:44:14;;;;;;;10.20;8.13;;;;;;;14.44;100.00;94395.56;5093717;28;20238;-58
2022/04/25 06:46:39;;;;;;;10.00;8.37;;;;;;;14.49;100.00;94397.72;5094376;28;20348;-58
2022/04/25 06:49:20;;;;;;;9.30;8.27;;;;;;;14.32;100.00;94399.19;5093802;28;20190;-59
2022/04/25 06:51:47;;;;;;;12.27;7.80;;;;;;;14.27;100.00;94401.75;5094658;28;20196;-58
2022/04/25 06:54:13;;;;;;;8.60;7.63;;;;;;;14.11;100.00;94404.69;5094315;28;20306;-58
2022/04/25 06:56:39;;;;;;;9.73;8.23;;;;;;;14.11;100.00;94399.19;5094150;28;20181;-57
2022/04/25 06:59:04;;;;;;;11.03;7.83;;;;;;;14.28;100.00;94406.78;5094503;28;20191;-58
2022/04/25 07:01:30;;;;;;;10.80;7.70;;;;;;;14.61;100.00;94407.84;5094039;28;20194;-58
2022/04/25 07:03:55;;;;;;;14.17;9.30;;;;;;;14.81;100.00;94413.72;5094919;28;20232;-58
2022/04/25 07:06:20;;;;;;;10.10;7.90;;;;;;;14.84;100.00;94412.81;5093963;28;20198;-58
2022/04/25 07:08:46;;;;;;;9.57;7.60;;;;;;;14.90;100.00;94416.47;5092933;28;20189;-58
2022/04/25 07:11:11;;;;;;;8.33;7.40;;;;;;;15.04;100.00;94415.91;5093634;28;20235;-59
2022/04/25 07:13:36;;;;;;;11.43;7.13;;;;;;;15.61;100.00;94420.59;5093783;28;20186;-58
2022/04/25 07:16:02;;;;;;;7.23;6.53;;;;;;;15.66;100.00;94432.97;5093735;28;20280;-59
2022/04/25 07:18:29;;;;;;;8.63;7.57;;;;;;;15.96;100.00;94423.78;5094114;28;20188;-58
2022/04/25 07:20:55;;;;;;;9.83;7.87;;;;;;;16.20;100.00;94427.38;5094590;28;20190;-58
2022/04/25 07:28:58;;;;;;;9.67;8.23;;;;;;;16.81;100.00;94434.41;5095068;28;20203;-58
2022/04/25 07:31:24;;;;;;;11.07;8.57;;;;;;;16.87;100.00;94440.81;5094261;28;20180;-59
2022/04/25 07:33:49;;;;;;;9.80;8.13;;;;;;;16.97;100.00;94447.84;5093779;28;20284;-58
2022/04/25 07:36:17;;;;;;;11.20;8.67;;;;;;;16.77;100.00;94448.38;5093892;28;20198;-58
2022/04/25 07:38:44;;;;;;;9.60;8.60;;;;;;;17.21;100.00;94454.13;5093734;28;20192;-59
2022/04/25 07:41:10;;;;;;;9.37;8.47;;;;;;;17.12;100.00;94463.22;5093206;28;20196;-60
2022/04/25 07:43:35;;;;;;;9.87;8.83;;;;;;;17.72;100.00;94463.03;5093572;28;20294;-59
2022/04/25 07:46:01;;;;;;;10.40;9.10;;;;;;;19.49;100.00;94464.88;5093247;28;20192;-59
2022/04/25 07:48:27;;;;;;;9.20;8.23;;;;;;;19.29;100.00;94467.59;5093434;28;20189;-59
2022/04/25 07:50:53;;;;;;;9.67;8.30;;;;;;;19.26;100.00;94479.63;5093270;28;20184;-60
2022/04/25 07:53:19;;;;;;;11.37;8.43;;;;;;;18.92;94.64;94483.88;5093324;28;20192;-59
2022/04/25 07:55:44;;;;;;;9.37;8.30;;;;;;;19.17;96.78;94493.56;5093206;28;20283;-55
2022/04/25 07:58:09;;;;;;;8.73;7.93;;;;;;;19.11;94.22;94489.94;5093315;28;20184;-55
2022/04/25 08:00:38;;;;;;;9.37;8.10;;;;;;;18.65;94.77;94495.22;5092647;28;20185;-57
2022/04/25 08:03:04;;;;;;;9.50;8.07;;;;;;;19.69;90.08;94494.56;5092925;28;20208;-56
2022/04/25 08:05:29;;;;;;;9.73;8.10;;;;;;;20.31;90.34;94495.63;5092947;28;20230;-57
2022/04/25 08:07:54;;;;;;;9.57;8.00;;;;;;;19.73;83.55;94490.34;5093025;28;20283;-56
2022/04/25 08:10:20;;;;;;;9.53;8.63;;;;;;;19.58;86.14;94495.19;5093294;28;20194;-59
2022/04/25 08:18:14;;;;;;;9.20;8.30;;;;;;;18.03;91.39;94507.63;5094177;28;20218;-58
2022/04/25 08:20:40;;;;;;;17.27;8.70;;;;;;;17.75;95.15;94514.56;5092775;28;20188;-58
2022/04/25 08:23:12;;;;;;;10.33;8.43;;;;;;;17.42;98.84;94514.63;5092789;28;20262;-59
2022/04/25 08:25:39;;;;;;;12.70;9.37;;;;;;;17.50;95.15;94520.56;5092233;28;20219;-58
2022/04/25 08:28:08;;;;;;;9.47;8.37;;;;;;;17.51;95.37;94516.56;5092689;28;20234;-58
2022/04/25 08:30:33;;;;;;;11.57;8.33;;;;;;;17.57;95.00;94525.72;5092581;28;20184;-59
2022/04/25 08:33:00;;;;;;;11.53;8.40;;;;;;;17.69;91.80;94527.50;5092617;28;20192;-59
2022/04/25 08:35:27;;;;;;;11.43;9.00;;;;;;;17.86;88.27;94528.63;5092483;28;20214;-59
2022/04/25 08:37:54;;;;;;;9.87;8.30;;;;;;;18.19;86.54;94523.75;5092698;28;20191;-59
2022/04/25 08:40:19;;;;;;;8.87;7.97;;;;;;;20.82;74.31;94528.94;5092568;28;20231;-59
2022/04/25 08:42:45;;;;;;;9.97;7.93;;;;;;;20.59;70.94;94515.34;5092811;28;20299;-58
2022/04/25 08:45:12;;;;;;;8.43;7.63;;;;;;;20.25;69.58;94525.31;5092460;28;20184;-60
2022/04/25 08:47:57;;;;;;;10.27;7.47;;;;;;;19.78;71.37;94528.50;5092460;28;20264;-59
2022/04/25 08:50:23;;;;;;;8.80;7.37;;;;;;;19.05;73.68;94530.63;5093031;28;20197;-59
2022/04/25 08:52:49;;;;;;;8.43;7.63;;;;;;;18.96;73.98;94539.03;5092956;28;20192;-59
2022/04/25 08:55:15;;;;;;;8.27;7.47;;;;;;;19.21;72.71;94538.44;5092543;28;20196;-59
2022/04/25 08:57:42;;;;;;;9.63;7.57;;;;;;;19.27;71.19;94531.00;5092490;28;20260;-59
2022/04/25 09:00:08;;;;;;;9.23;8.23;;;;;;;20.73;67.05;94534.69;5092461;28;20203;-60
2022/04/25 09:02:38;;;;;;;9.87;7.33;;;;;;;23.57;54.45;94521.16;5092274;28;20210;-59
2022/04/25 09:05:08;;;;;;;7.83;7.13;;;;;;;24.45;48.32;94531.31;5092716;28;20188;-59
2022/04/25 09:07:37;;;;;;;8.97;8.03;;;;;;;24.30;47.41;94528.09;5092287;28;20208;-59
2022/04/25 09:10:04;;;;;;;9.33;7.20;;;;;;;23.40;48.45;94541.91;5092443;28;20207;-60
2022/04/25 09:12:30;;;;;;;7.73;7.03;;;;;;;23.10;46.60;94538.06;5092475;28;20199;-60
2022/04/25 09:14:56;;;;;;;7.00;6.30;;;;;;;22.72;48.15;94544.34;5093204;28;20267;-60
2022/04/25 09:17:22;;;;;;;8.33;7.23;;;;;;;22.61;49.25;94538.75;5092121;28;20196;-60
2022/04/25 09:19:48;;;;;;;7.93;7.13;;;;;;;21.86;51.90;94548.50;5091651;28;20275;-60
2022/04/25 09:22:29;;;;;;;7.57;6.97;;;;;;;21.15;55.92;94554.28;5092484;28;20280;-60
2022/04/25 09:25:03;;;;;;;7.73;7.00;;;;;;;21.65;55.54;94555.44;5092291;28;20215;-59
2022/04/25 09:27:28;;;;;;;8.33;7.13;;;;;;;21.95;53.73;94551.09;5092102;28;20184;-60
2022/04/25 09:29:53;;;;;;;7.60;6.63;;;;;;;24.19;47.52;94544.88;5092015;28;20259;-60
2022/04/25 09:32:31;;;;;;;6.87;6.27;;;;;;;24.79;43.93;94553.03;5095139;28;20195;-60
2022/04/25 09:35:04;;;;;;;6.83;6.13;;;;;;;24.19;44.67;94556.03;5095789;28;20267;-60
2022/04/25 09:37:46;;;;;;;6.80;6.20;;;;;;;23.64;44.54;94551.28;5095212;28;20181;-60
2022/04/25 09:40:17;;;;;;;9.37;7.57;;;;;;;23.26;46.00;94556.84;5095597;28;20211;-61
2022/04/25 09:42:43;;;;;;;7.23;6.53;;;;;;;22.96;46.08;94558.56;5095606;28;20220;-58
2022/04/25 09:45:08;;;;;;;7.57;6.70;;;;;;;22.52;48.48;94558.44;5095618;28;20196;-58
2022/04/25 09:47:37;;;;;;;9.37;7.37;;;;;;;21.80;49.88;94561.63;5094847;28;20230;-57
2022/04/25 09:50:09;;;;;;;9.67;7.60;;;;;;;21.36;52.35;94564.06;5094908;28;20254;-57
2022/04/25 09:52:50;;;;;;;7.87;7.07;;;;;;;21.22;55.20;94570.50;5095299;28;20211;-57
2022/04/25 09:55:16;;;;;;;8.57;7.63;;;;;;;21.09;54.64;94575.66;5095319;28;20223;-58
2022/04/25 09:57:42;;;;;;;8.27;7.47;;;;;;;20.44;58.31;94570.94;5094961;28;20199;-57
2022/04/25 10:00:09;;;;;;;7.60;6.90;;;;;;;20.21;58.44;94574.69;5094791;28;20253;-59
2022/04/25 10:02:41;;;;;;;7.93;7.23;;;;;;;20.52;59.11;94577.59;5094721;28;20208;-60
2022/04/25 10:05:14;;;;;;;7.70;7.00;;;;;;;21.54;56.11;94574.03;5094699;28;20195;-60
2022/04/25 10:07:41;;;;;;;8.13;7.33;;;;;;;21.20;56.22;94581.31;5094719;28;20234;-60
2022/04/25 10:10:09;;;;;;;9.23;7.33;;;;;;;21.50;54.98;94581.84;5094734;28;20212;-60
2022/04/25 10:12:35;;;;;;;9.37;8.43;;;;;;;21.69;54.12;94567.09;5094781;28;20188;-60
2022/04/25 10:15:02;;;;;;;8.60;7.70;;;;;;;21.57;55.12;94576.56;5095973;28;20180;-60
2022/04/25 10:17:28;;;;;;;10.33;8.43;;;;;;;21.13;57.14;94587.31;5094736;28;20197;-60
2022/04/25 10:19:55;;;;;;;10.17;9.17;;;;;;;21.10;57.99;94590.31;5094637;28;20188;-59
2022/04/25 10:22:22;;;;;;;9.83;8.83;;;;;;;20.92;58.21;94585.88;5094538;28;20188;-59
2022/04/25 10:24:47;;;;;;;9.73;8.70;;;;;;;20.81;56.35;94582.97;5094699;28;20283;-59
2022/04/25 10:27:15;;;;;;;10.60;9.50;;;;;;;21.48;55.37;94579.56;5094541;28;20285;-60
2022/04/25 10:29:49;;;;;;;9.40;8.47;;;;;;;23.87;48.43;94568.75;5094366;28;20192;-59
2022/04/25 10:32:21;;;;;;;8.80;8.00;;;;;;;25.65;42.39;94567.44;5094978;28;20188;-60
2022/04/25 10:34:54;;;;;;;8.00;7.30;;;;;;;27.14;39.16;94572.97;5094424;28;20308;-59
2022/04/25 10:37:43;;;;;;;8.20;7.40;;;;;;;27.69;36.39;94572.13;5094187;28;20188;-60
2022/04/25 10:40:12;;;;;;;7.33;6.63;;;;;;;28.64;33.62;94566.38;5095024;28;20191;-59
2022/04/25 10:46:01;;;;;;;7.60;7.00;;;;;;;28.48;33.30;94577.94;5095268;28;20200;-59
2022/04/25 10:48:28;;;;;;;7.63;6.93;;;;;;;26.68;35.07;94581.72;5094534;28;20207;-59
2022/04/25 10:51:09;;;;;;;7.73;6.93;;;;;;;26.88;35.40;94588.84;5094150;28;20189;-58
2022/04/25 10:54:00;;;;;;;7.93;7.17;;;;;;;28.45;33.38;94584.63;5094216;28;20188;-58
2022/04/25 10:56:27;;;;;;;7.83;7.13;;;;;;;26.47;36.17;94577.84;5094268;28;20203;-60
2022/04/25 10:59:28;;;;;;;8.77;7.90;;;;;;;25.23;39.14;94582.72;5094409;28;20231;-57
2022/04/25 11:01:56;;;;;;;9.53;8.47;;;;;;;24.22;41.21;94577.34;5088465;28;20200;-57
2022/04/25 11:04:22;;;;;;;7.67;6.97;;;;;;;24.93;40.29;94585.47;5093753;28;20204;-58
2022/04/25 11:07:08;;;;;;;8.00;7.20;;;;;;;27.44;34.91;94579.16;5093791;28;20240;-57
2022/04/25 11:09:40;;;;;;;7.90;7.20;;;;;;;28.66;32.71;94577.06;5093711;28;20191;-58
2022/04/25 11:12:07;;;;;;;7.80;7.00;;;;;;;29.79;30.96;94573.59;5093892;28;20189;-58
2022/04/25 11:14:32;;;;;;;8.30;7.60;;;;;;;28.86;30.70;94573.59;5094170;28;20180;-60
2022/04/25 11:17:11;;;;;;;7.63;7.03;;;;;;;27.51;32.81;94578.56;5093548;28;20192;-60
2022/04/25 11:19:51;;;;;;;7.43;6.83;;;;;;;28.01;32.94;94581.31;5093586;28;20184;-60
2022/04/25 11:22:38;;;;;;;8.57;7.77;;;;;;;26.59;33.92;94579.25;5094019;28;20248;-64
2022/04/25 11:25:25;;;;;;;7.53;6.83;;;;;;;24.64;37.27;94577.72;5093551;28;20295;-60
2022/04/25 11:28:08;;;;;;;8.00;7.20;;;;;;;26.47;34.88;94586.25;5094023;28;20191;-60
2022/04/25 11:30:34;;;;;;;8.17;7.37;;;;;;;27.21;33.10;94586.38;5093862;28;20185;-60
2022/04/25 11:33:05;;;;;;;8.70;7.90;;;;;;;25.31;35.29;94578.13;5093371;28;20195;-56
2022/04/25 11:35:30;;;;;;;8.23;7.53;;;;;;;23.69;37.65;94586.00;5093604;28;20189;-60
2022/04/25 11:37:57;;;;;;;9.37;8.57;;;;;;;23.70;39.54;94593.09;5093309;28;20187;-60
2022/04/25 11:40:23;;;;;;;10.70;9.67;;;;;;;23.00;41.09;94592.50;5093826;28;20341;-60
2022/04/25 11:42:49;;;;;;;10.63;9.23;;;;;;;22.79;43.09;94585.63;5093486;28;20295;-60
2022/04/25 11:45:14;;;;;;;8.97;8.17;;;;;;;22.70;42.88;94586.63;5093194;28;20283;-60
2022/04/25 11:47:40;;;;;;;9.13;8.27;;;;;;;22.36;44.36;94591.25;5093469;28;20188;-60
2022/04/25 11:50:11;;;;;;;8.97;8.17;;;;;;;22.32;45.16;94590.72;5093439;28;20196;-60
2022/04/25 11:52:47;;;;;;;8.40;7.57;;;;;;;22.61;44.97;94606.31;5093875;28;20200;-60